Wetterdaten: Woche 19.03.18 - 25.03.18 (KW12)
Datum Zeit Temp. A. Feuchte A. Luftdruck Regen Wind Richtung Taupunkt Windchill Windben
19.03.2018 00:00 -4,2 C 69 % 1010,2 hPa 0,0 l/m 3,1 km/h N -9,0 C -4,2 C 8,9 km/h
19.03.2018 01:00 -4,6 C 69 % 1010,2 hPa 0,0 l/m 4,0 km/h N -9,4 C -4,6 C 11,3 km/h
19.03.2018 02:00 -4,9 C 69 % 1009,9 hPa 0,0 l/m 3,5 km/h N -9,7 C -4,9 C 13,3 km/h
19.03.2018 03:00 -5,1 C 69 % 1009,9 hPa 0,0 l/m 1,9 km/h N -9,8 C -5,1 C 10,1 km/h
19.03.2018 04:00 -5,3 C 71 % 1009,9 hPa 0,0 l/m 4,0 km/h N -9,8 C -5,3 C 10,9 km/h
19.03.2018 05:00 -5,7 C 72 % 1009,8 hPa 0,0 l/m 4,7 km/h N -9,9 C -5,7 C 15,3 km/h
19.03.2018 06:00 -5,9 C 72 % 1009,8 hPa 0,0 l/m 4,9 km/h N -10,1 C -5,9 C 16,5 km/h
19.03.2018 07:00 -5,7 C 73 % 1010,3 hPa 0,0 l/m 4,1 km/h N -9,9 C -5,7 C 11,3 km/h
19.03.2018 08:00 -5,2 C 72 % 1010,4 hPa 0,0 l/m 4,9 km/h N -9,4 C -5,2 C 14,9 km/h
19.03.2018 09:00 -4,4 C 70 % 1010,6 hPa 0,0 l/m 4,7 km/h N -9,1 C -4,4 C 14,1 km/h
19.03.2018 10:00 -3,8 C 68 % 1010,5 hPa 0,0 l/m 5,9 km/h N -8,9 C -3,9 C 17,3 km/h
19.03.2018 11:00 -3,2 C 66 % 1010,5 hPa 0,0 l/m 5,8 km/h N -8,6 C -3,3 C 17,3 km/h
19.03.2018 12:00 -2,9 C 67 % 1010,3 hPa 0,0 l/m 5,7 km/h N -8,2 C -2,9 C 17,7 km/h
19.03.2018 13:00 -2,7 C 67 % 1009,8 hPa 0,0 l/m 6,8 km/h N -8,0 C -3,1 C 17,7 km/h
19.03.2018 14:00 -2,6 C 67 % 1009,7 hPa 0,0 l/m 6,9 km/h N -7,8 C -3,1 C 18,9 km/h
19.03.2018 15:00 -2,5 C 67 % 1009,7 hPa 0,0 l/m 6,5 km/h N -7,8 C -2,8 C 18,5 km/h
19.03.2018 16:00 -2,8 C 72 % 1009,7 hPa 0,0 l/m 5,7 km/h N -7,2 C -2,8 C 14,9 km/h
19.03.2018 17:00 -3,3 C 77 % 1009,9 hPa 0,0 l/m 3,8 km/h N -6,8 C -3,3 C 11,7 km/h
19.03.2018 18:00 -3,5 C 78 % 1010,2 hPa 0,0 l/m 4,5 km/h N -6,9 C -3,5 C 11,3 km/h
19.03.2018 19:00 -3,6 C 79 % 1010,5 hPa 0,0 l/m 4,7 km/h N -6,8 C -3,6 C 14,5 km/h
19.03.2018 20:00 -3,8 C 81 % 1010,6 hPa 0,0 l/m 5,8 km/h N -6,5 C -3,8 C 15,3 km/h
19.03.2018 21:00 -3,8 C 82 % 1010,5 hPa 0,0 l/m 4,9 km/h N -6,5 C -3,9 C 12,5 km/h
19.03.2018 22:00 -3,9 C 82 % 1010,3 hPa 0,0 l/m 5,0 km/h N -6,5 C -3,9 C 14,5 km/h
19.03.2018 23:00 -3,8 C 81 % 1010,2 hPa 0,0 l/m 7,0 km/h N -6,6 C -4,7 C 17,3 km/h
20.03.2018 00:00 -3,7 C 80 % 1010,1 hPa 0,0 l/m 7,2 km/h N -6,7 C -4,5 C 17,7 km/h
20.03.2018 01:00 -3,6 C 79 % 1010,1 hPa 0,0 l/m 7,4 km/h N -6,7 C -4,8 C 18,1 km/h
20.03.2018 02:00 -3,5 C 78 % 1009,5 hPa 0,0 l/m 7,0 km/h N -6,9 C -4,3 C 19,3 km/h
20.03.2018 03:00 -3,5 C 76 % 1009,2 hPa 0,0 l/m 8,5 km/h N -7,1 C -5,9 C 21,3 km/h
20.03.2018 04:00 -3,6 C 78 % 1009,2 hPa 0,0 l/m 10,5 km/h N -6,9 C -7,8 C 25,8 km/h
20.03.2018 05:00 -3,9 C 81 % 1009,4 hPa 0,0 l/m 8,6 km/h N -6,7 C -6,3 C 21,3 km/h
20.03.2018 06:00 -3,6 C 79 % 1009,6 hPa 0,0 l/m 10,7 km/h N -6,7 C -8,0 C 26,5 km/h
20.03.2018 07:00 -3,3 C 77 % 1010,3 hPa 0,0 l/m 9,5 km/h N -6,7 C -6,5 C 22,5 km/h
20.03.2018 08:00 -2,9 C 79 % 1010,9 hPa 0,0 l/m 9,9 km/h N -6,0 C -6,5 C 22,1 km/h
20.03.2018 09:00 -2,1 C 75 % 1011,4 hPa 0,0 l/m 8,4 km/h N -6,0 C -4,2 C 22,1 km/h
20.03.2018 10:00 -1,3 C 72 % 1011,6 hPa 0,0 l/m 8,5 km/h N -5,7 C -3,4 C 22,9 km/h
20.03.2018 11:00 -0,8 C 71 % 1011,9 hPa 0,0 l/m 10,4 km/h N -5,4 C -4,6 C 27,3 km/h
20.03.2018 12:00 -0,0 C 66 % 1012,1 hPa 0,3 l/m 13,3 km/h N -5,6 C -5,9 C 30,2 km/h
20.03.2018 13:00 0,4 C 61 % 1012,4 hPa 0,0 l/m 15,1 km/h N -6,2 C -6,5 C 32,6 km/h
20.03.2018 14:00 0,1 C 64 % 1012,9 hPa 0,0 l/m 10,9 km/h N -6,0 C -4,1 C 26,1 km/h
20.03.2018 15:00 0,2 C 66 % 1013,3 hPa 0,0 l/m 11,2 km/h N -5,5 C -4,2 C 26,2 km/h
20.03.2018 16:00 0,5 C 58 % 1014,1 hPa 0,0 l/m 11,3 km/h N -6,8 C -3,9 C 26,1 km/h
20.03.2018 17:00 0,4 C 65 % 1014,9 hPa 0,0 l/m 9,1 km/h N -5,4 C -2,2 C 21,3 km/h
20.03.2018 18:00 0,0 C 67 % 1015,9 hPa 0,0 l/m 7,2 km/h N -5,3 C -1,0 C 18,9 km/h
20.03.2018 19:00 -0,1 C 68 % 1017,0 hPa 0,0 l/m 6,9 km/h N -5,4 C -0,6 C 18,1 km/h
20.03.2018 20:00 -0,1 C 68 % 1017,9 hPa 0,0 l/m 6,6 km/h N -5,3 C -0,5 C 18,9 km/h
20.03.2018 21:00 -0,3 C 68 % 1018,6 hPa 0,0 l/m 6,1 km/h N -5,5 C -0,9 C 18,1 km/h
20.03.2018 22:00 -0,1 C 66 % 1019,0 hPa 0,0 l/m 8,7 km/h N -5,7 C -2,4 C 20,1 km/h
20.03.2018 23:00 -0,2 C 66 % 1019,3 hPa 0,0 l/m 7,1 km/h N -5,8 C -1,2 C 18,5 km/h
21.03.2018 00:00 -0,1 C 64 % 1019,8 hPa 0,0 l/m 8,4 km/h N -6,0 C -2,0 C 19,7 km/h
21.03.2018 01:00 -0,5 C 64 % 1020,0 hPa 0,0 l/m 7,5 km/h N -6,4 C -1,6 C 19,7 km/h
21.03.2018 02:00 -0,8 C 64 % 1020,1 hPa 0,0 l/m 7,4 km/h N -6,7 C -1,9 C 20,5 km/h
21.03.2018 03:00 -1,0 C 64 % 1019,9 hPa 0,0 l/m 9,5 km/h N -6,9 C -4,2 C 23,3 km/h
21.03.2018 04:00 -1,4 C 65 % 1020,4 hPa 0,0 l/m 8,8 km/h N -7,2 C -3,8 C 22,1 km/h
21.03.2018 05:00 -1,7 C 67 % 1021,1 hPa 0,0 l/m 7,6 km/h N -7,1 C -2,9 C 20,5 km/h
21.03.2018 06:00 -1,8 C 69 % 1021,9 hPa 0,0 l/m 6,1 km/h N -6,7 C -2,3 C 17,7 km/h
21.03.2018 07:00 -1,1 C 70 % 1022,8 hPa 0,0 l/m 6,5 km/h N -5,9 C -1,6 C 17,7 km/h
21.03.2018 08:00 -0,0 C 70 % 1023,5 hPa 0,0 l/m 7,8 km/h N -4,8 C -1,4 C 19,7 km/h
21.03.2018 09:00 0,3 C 71 % 1024,1 hPa 0,0 l/m 7,3 km/h N -4,3 C -0,9 C 18,9 km/h
21.03.2018 10:00 0,6 C 73 % 1024,4 hPa 0,0 l/m 7,0 km/h N -3,7 C -0,1 C 19,7 km/h
21.03.2018 11:00 1,1 C 72 % 1024,4 hPa 0,0 l/m 8,6 km/h N -3,5 C -1,1 C 19,3 km/h
21.03.2018 12:00 2,2 C 69 % 1024,1 hPa 0,3 l/m 10,4 km/h N -2,9 C -1,3 C 22,9 km/h
21.03.2018 13:00 3,1 C 63 % 1023,9 hPa 0,0 l/m 11,3 km/h N -3,3 C -0,9 C 24,5 km/h
21.03.2018 14:00 3,7 C 59 % 1023,8 hPa 0,0 l/m 10,1 km/h N -3,5 C 0,5 C 24,6 km/h
21.03.2018 15:00 3,7 C 53 % 1023,6 hPa 0,3 l/m 8,5 km/h N -5,0 C 1,5 C 21,7 km/h
21.03.2018 16:00 3,6 C 46 % 1023,6 hPa 0,0 l/m 8,6 km/h N -7,0 C 1,7 C 21,7 km/h
21.03.2018 17:00 3,4 C 42 % 1024,1 hPa 0,0 l/m 8,4 km/h N -8,2 C 1,7 C 22,1 km/h
21.03.2018 18:00 2,5 C 44 % 1024,9 hPa 0,0 l/m 5,1 km/h N -8,6 C 2,5 C 14,5 km/h
21.03.2018 19:00 1,5 C 48 % 1025,7 hPa 0,0 l/m 2,7 km/h N -8,3 C 1,5 C 9,3 km/h
21.03.2018 20:00 0,6 C 51 % 1026,2 hPa 0,0 l/m 1,3 km/h N -8,3 C 0,6 C 6,4 km/h
21.03.2018 21:00 0,1 C 54 % 1026,3 hPa 0,0 l/m 1,5 km/h N -8,2 C 0,1 C 6,8 km/h
21.03.2018 22:00 -0,8 C 58 % 1026,4 hPa 0,0 l/m 0,1 km/h N -8,1 C -0,8 C 1,2 km/h
21.03.2018 23:00 -1,7 C 63 % 1026,5 hPa 0,0 l/m 0,1 km/h N -7,8 C -1,7 C 2,0 km/h
22.03.2018 00:00 -2,8 C 65 % 1026,2 hPa 0,0 l/m 0,0 km/h N -8,4 C -2,8 C 0,0 km/h
22.03.2018 01:00 -4,0 C 71 % 1025,9 hPa 0,0 l/m 0,0 km/h N -8,4 C -4,0 C 0,0 km/h
22.03.2018 02:00 -4,8 C 76 % 1025,7 hPa 0,0 l/m 0,0 km/h N -8,5 C -4,8 C 0,0 km/h
22.03.2018 03:00 -5,0 C 78 % 1025,1 hPa 0,0 l/m 0,0 km/h N -8,2 C -5,0 C 0,0 km/h
22.03.2018 04:00 -4,9 C 79 % 1024,4 hPa 0,0 l/m 0,0 km/h N -8,0 C -4,9 C 0,0 km/h
22.03.2018 05:00 -5,6 C 79 % 1024,0 hPa 0,0 l/m 0,0 km/h N -8,6 C -5,6 C 0,0 km/h
22.03.2018 06:00 -5,9 C 81 % 1023,7 hPa 0,0 l/m 0,0 km/h N -8,7 C -5,9 C 0,0 km/h
22.03.2018 07:00 -5,1 C 83 % 1023,1 hPa 0,0 l/m 0,0 km/h N -7,6 C -5,1 C 0,0 km/h
22.03.2018 08:00 -1,8 C 79 % 1022,4 hPa 0,0 l/m 0,3 km/h N -4,9 C -1,8 C 4,4 km/h
22.03.2018 09:00 3,1 C 57 % 1021,4 hPa 0,0 l/m 0,3 km/h N -4,7 C 3,1 C 5,2 km/h
22.03.2018 10:00 5,8 C 50 % 1020,6 hPa 0,0 l/m 0,5 km/h N -3,8 C 5,8 C 5,6 km/h
22.03.2018 11:00 6,2 C 50 % 1019,6 hPa 0,0 l/m 0,6 km/h N -3,4 C 6,2 C 5,2 km/h
22.03.2018 12:00 6,4 C 49 % 1018,4 hPa 0,0 l/m 0,8 km/h N -3,7 C 6,4 C 6,8 km/h
22.03.2018 13:00 7,1 C 48 % 1017,1 hPa 0,0 l/m 0,9 km/h N -3,2 C 7,1 C 6,4 km/h
22.03.2018 14:00 7,4 C 46 % 1016,1 hPa 0,0 l/m 1,1 km/h N -3,6 C 7,4 C 9,6 km/h
22.03.2018 15:00 7,4 C 46 % 1014,9 hPa 0,0 l/m 0,3 km/h N -3,6 C 7,4 C 4,4 km/h
22.03.2018 16:00 6,9 C 46 % 1014,1 hPa 0,0 l/m 0,2 km/h N -3,9 C 6,9 C 4,8 km/h
22.03.2018 17:00 6,1 C 47 % 1013,7 hPa 0,0 l/m 0,4 km/h N -4,3 C 6,1 C 4,0 km/h
22.03.2018 18:00 4,5 C 51 % 1013,6 hPa 0,0 l/m 0,0 km/h N -4,8 C 4,5 C 0,4 km/h
22.03.2018 19:00 2,2 C 58 % 1013,6 hPa 0,0 l/m 0,2 km/h N -5,2 C 2,2 C 4,0 km/h
22.03.2018 20:00 2,6 C 57 % 1013,1 hPa 0,0 l/m 0,6 km/h N -5,1 C 2,6 C 5,6 km/h
22.03.2018 21:00 2,4 C 56 % 1012,7 hPa 0,0 l/m 0,1 km/h N -5,4 C 2,4 C 1,6 km/h
22.03.2018 22:00 1,0 C 63 % 1012,3 hPa 0,0 l/m 0,0 km/h N -5,3 C 1,0 C 0,0 km/h
22.03.2018 23:00 0,1 C 69 % 1011,8 hPa 0,0 l/m 0,1 km/h N -4,8 C 0,1 C 1,2 km/h
23.03.2018 00:00 0,8 C 67 % 1011,2 hPa 0,0 l/m 0,6 km/h N -4,6 C 0,8 C 4,4 km/h
23.03.2018 01:00 2,0 C 63 % 1010,5 hPa 0,0 l/m 4,7 km/h N -4,3 C 2,0 C 13,7 km/h
23.03.2018 02:00 2,3 C 66 % 1009,6 hPa 0,0 l/m 6,6 km/h N -3,4 C 1,8 C 17,3 km/h
23.03.2018 03:00 2,1 C 71 % 1009,2 hPa 0,0 l/m 7,1 km/h N -2,6 C 1,4 C 17,3 km/h
23.03.2018 04:00 2,2 C 75 % 1008,7 hPa 0,0 l/m 6,9 km/h N -1,9 C 1,7 C 19,3 km/h
23.03.2018 05:00 2,2 C 76 % 1008,1 hPa 0,0 l/m 9,1 km/h N -1,6 C -0,2 C 22,1 km/h
23.03.2018 06:00 2,3 C 76 % 1007,8 hPa 0,0 l/m 7,3 km/h N -1,4 C 1,5 C 19,3 km/h
23.03.2018 07:00 2,4 C 77 % 1007,8 hPa 0,0 l/m 6,2 km/h N -1,2 C 2,1 C 17,7 km/h
23.03.2018 08:00 2,6 C 77 % 1008,0 hPa 0,0 l/m 7,3 km/h N -1,0 C 1,6 C 19,7 km/h
23.03.2018 09:00 2,9 C 77 % 1007,8 hPa 0,0 l/m 10,6 km/h N -0,7 C -0,6 C 21,7 km/h
23.03.2018 10:00 3,7 C 76 % 1007,2 hPa 0,0 l/m 10,2 km/h N -0,2 C 0,5 C 25,3 km/h
23.03.2018 11:00 4,9 C 74 % 1006,6 hPa 0,0 l/m 11,4 km/h N 0,6 C 1,1 C 27,8 km/h
23.03.2018 12:00 5,8 C 72 % 1005,9 hPa 0,0 l/m 12,5 km/h N 1,1 C 1,4 C 26,6 km/h
23.03.2018 13:00 6,2 C 70 % 1005,3 hPa 0,0 l/m 11,9 km/h N 1,1 C 2,2 C 25,7 km/h
23.03.2018 14:00 5,4 C 73 % 1005,0 hPa 0,0 l/m 10,2 km/h N 1,0 C 2,5 C 24,5 km/h
23.03.2018 15:00 5,2 C 75 % 1004,5 hPa 0,0 l/m 8,1 km/h N 1,2 C 3,8 C 19,7 km/h
23.03.2018 16:00 5,5 C 74 % 1004,4 hPa 0,0 l/m 11,4 km/h N 1,2 C 1,7 C 28,2 km/h
23.03.2018 17:00 5,0 C 76 % 1004,5 hPa 0,0 l/m 10,8 km/h N 1,1 C 1,6 C 24,5 km/h
23.03.2018 18:00 4,7 C 77 % 1004,7 hPa 0,0 l/m 8,5 km/h N 1,0 C 2,9 C 18,9 km/h
23.03.2018 19:00 4,4 C 78 % 1004,9 hPa 0,0 l/m 7,3 km/h N 1,0 C 3,7 C 19,7 km/h
23.03.2018 20:00 4,3 C 78 % 1005,1 hPa 0,0 l/m 6,0 km/h N 0,8 C 3,4 C 16,5 km/h
23.03.2018 21:00 4,2 C 79 % 1005,0 hPa 0,0 l/m 3,4 km/h N 0,9 C 4,2 C 12,5 km/h
23.03.2018 22:00 4,1 C 79 % 1004,9 hPa 0,0 l/m 4,2 km/h N 0,7 C 4,1 C 15,3 km/h
23.03.2018 23:00 3,9 C 79 % 1004,8 hPa 0,0 l/m 2,3 km/h N 0,6 C 3,9 C 10,5 km/h
24.03.2018 00:00 3,9 C 79 % 1004,8 hPa 0,0 l/m 3,2 km/h N 0,6 C 3,9 C 9,7 km/h
24.03.2018 01:00 3,7 C 80 % 1004,7 hPa 0,0 l/m 1,7 km/h N 0,5 C 3,7 C 6,9 km/h
24.03.2018 02:00 3,5 C 80 % 1004,7 hPa 0,0 l/m 0,2 km/h N 0,4 C 3,5 C 2,8 km/h
24.03.2018 03:00 3,4 C 80 % 1004,7 hPa 0,0 l/m 0,4 km/h N 0,3 C 3,4 C 4,0 km/h
24.03.2018 04:00 3,1 C 81 % 1004,5 hPa 0,0 l/m 0,0 km/h N 0,2 C 3,1 C 0,4 km/h
24.03.2018 05:00 2,9 C 81 % 1004,5 hPa 0,0 l/m 0,0 km/h N -0,1 C 2,9 C 0,0 km/h
24.03.2018 06:00 2,8 C 81 % 1004,8 hPa 0,0 l/m 0,0 km/h N -0,2 C 2,8 C 0,0 km/h
24.03.2018 07:00 3,0 C 81 % 1005,0 hPa 0,0 l/m 0,1 km/h N 0,1 C 3,0 C 3,2 km/h
24.03.2018 08:00 4,5 C 77 % 1005,2 hPa 0,0 l/m 0,5 km/h N 0,7 C 4,5 C 5,2 km/h
24.03.2018 09:00 6,1 C 69 % 1005,5 hPa 0,0 l/m 0,3 km/h N 0,9 C 6,1 C 4,4 km/h
24.03.2018 10:00 7,8 C 61 % 1005,8 hPa 0,0 l/m 0,4 km/h N 0,8 C 7,8 C 6,0 km/h
24.03.2018 11:00 8,5 C 56 % 1005,5 hPa 0,0 l/m 1,2 km/h N 0,2 C 8,5 C 8,8 km/h
24.03.2018 12:00 9,0 C 51 % 1005,2 hPa 0,0 l/m 0,6 km/h N -0,8 C 9,0 C 6,0 km/h
24.03.2018 13:00 9,9 C 45 % 1005,1 hPa 0,0 l/m 1,1 km/h N -1,6 C 9,9 C 11,7 km/h
24.03.2018 14:00 9,6 C 45 % 1005,1 hPa 0,0 l/m 0,9 km/h N -1,9 C 9,6 C 8,0 km/h
24.03.2018 15:00 9,4 C 46 % 1005,2 hPa 0,0 l/m 1,7 km/h N -1,7 C 9,4 C 8,0 km/h
24.03.2018 16:00 8,9 C 46 % 1005,4 hPa 0,0 l/m 1,3 km/h N -2,2 C 8,9 C 8,4 km/h
24.03.2018 17:00 7,9 C 50 % 1005,9 hPa 0,0 l/m 0,7 km/h N -1,9 C 7,9 C 6,4 km/h
24.03.2018 18:00 6,6 C 56 % 1006,5 hPa 0,0 l/m 1,3 km/h N -1,6 C 6,6 C 6,4 km/h
24.03.2018 19:00 5,1 C 62 % 1007,2 hPa 0,0 l/m 0,2 km/h N -1,5 C 5,1 C 3,2 km/h
24.03.2018 20:00 3,9 C 69 % 1007,8 hPa 0,0 l/m 0,6 km/h N -1,3 C 3,9 C 6,0 km/h
24.03.2018 21:00 2,8 C 73 % 1008,1 hPa 0,0 l/m 0,4 km/h N -1,7 C 2,8 C 3,6 km/h
24.03.2018 22:00 1,8 C 76 % 1008,3 hPa 0,0 l/m 0,1 km/h N -2,0 C 1,8 C 1,6 km/h
24.03.2018 23:00 0,9 C 79 % 1008,3 hPa 0,0 l/m 0,1 km/h N -2,4 C 0,9 C 2,4 km/h
25.03.2018 00:00 0,3 C 81 % 1008,3 hPa 0,0 l/m 0,0 km/h N -2,7 C 0,3 C 0,8 km/h
25.03.2018 01:00 0,2 C 82 % 1008,3 hPa 0,0 l/m 0,1 km/h N -2,6 C 0,2 C 2,0 km/h
25.03.2018 03:00 0,2 C 82 % 1008,2 hPa 0,0 l/m 0,3 km/h N -2,5 C 0,2 C 6,0 km/h
25.03.2018 04:00 0,2 C 83 % 1008,3 hPa 0,0 l/m 0,2 km/h N -2,3 C 0,2 C 6,4 km/h
25.03.2018 05:00 -0,0 C 83 % 1008,7 hPa 0,0 l/m 0,1 km/h N -2,6 C -0,0 C 2,8 km/h
25.03.2018 06:00 -0,4 C 83 % 1008,9 hPa 0,0 l/m 0,2 km/h N -2,9 C -0,4 C 4,8 km/h
25.03.2018 07:00 -0,7 C 84 % 1009,4 hPa 0,0 l/m 0,0 km/h N -3,0 C -0,7 C 1,6 km/h
25.03.2018 08:00 0,2 C 84 % 1009,8 hPa 0,0 l/m 1,2 km/h N -2,2 C 0,2 C 8,4 km/h
25.03.2018 09:00 1,7 C 83 % 1010,1 hPa 0,0 l/m 2,5 km/h N -0,8 C 1,7 C 9,3 km/h
25.03.2018 10:00 4,8 C 75 % 1010,4 hPa 0,0 l/m 2,0 km/h N 0,7 C 4,8 C 12,1 km/h
25.03.2018 11:00 5,8 C 65 % 1010,5 hPa 0,0 l/m 3,3 km/h N -0,2 C 5,8 C 12,9 km/h
25.03.2018 12:00 6,5 C 60 % 1010,7 hPa 0,0 l/m 4,2 km/h N -0,8 C 6,5 C 16,1 km/h
25.03.2018 13:00 6,7 C 58 % 1010,7 hPa 0,0 l/m 3,4 km/h N -1,1 C 6,7 C 11,7 km/h
25.03.2018 14:00 7,6 C 57 % 1010,6 hPa 0,0 l/m 3,0 km/h N -0,4 C 7,6 C 11,3 km/h
25.03.2018 15:00 6,9 C 60 % 1010,6 hPa 0,0 l/m 2,4 km/h N -0,4 C 6,9 C 10,1 km/h
25.03.2018 16:00 6,4 C 61 % 1010,5 hPa 0,0 l/m 1,5 km/h N -0,6 C 6,4 C 8,9 km/h
25.03.2018 17:00 5,9 C 61 % 1010,5 hPa 0,0 l/m 1,3 km/h N -1,0 C 5,9 C 8,0 km/h
25.03.2018 18:00 4,9 C 63 % 1010,7 hPa 0,0 l/m 1,0 km/h N -1,6 C 4,9 C 7,6 km/h
25.03.2018 19:00 3,6 C 66 % 1011,0 hPa 0,0 l/m 0,2 km/h N -2,2 C 3,6 C 5,2 km/h
25.03.2018 20:00 2,5 C 68 % 1011,4 hPa 0,0 l/m 0,1 km/h N -2,8 C 2,5 C 0,8 km/h
25.03.2018 21:00 1,3 C 71 % 1011,6 hPa 0,0 l/m 0,0 km/h N -3,4 C 1,3 C 0,4 km/h
25.03.2018 22:00 -0,2 C 73 % 1011,5 hPa 0,0 l/m 0,0 km/h N -4,4 C -0,2 C 0,0 km/h
25.03.2018 23:00 -1,4 C 76 % 1011,4 hPa 0,0 l/m 0,0 km/h N -5,1 C -1,4 C 0,0 km/h
Min-Datum _ 22.03.18 21.03.18 23.03.18 - 21.03.18 - 19.03.18 20.03.18 21.03.18
_ Min-Zeit 06:30 17:30 15:30 - 22:15 - 06:00 04:15 22:15
Minimum _ -6,1 C 41 % 1004,4 hPa - 0,0 km/h - -10,1 C -8,8 C 0,0 km/h
Max-Datum _ 24.03.18 25.03.18 21.03.18 20.03.18 20.03.18 - 23.03.18 24.03.18 20.03.18
_ Max-Zeit 13:30 06:45 23:00 12:45 13:00 - 16:45 13:30 13:00
Maximum _ 10,1 C 84 % 1026,5 hPa 0,3 l/m 16,5 km/h
N
- 1,3 C 10,1 C 40,2 km/h
N
Durchschnitt _ 1,2 C 68 % 1012,6 hPa #0,8 l/m 4,4 km/h N -4,2 C 0,3 C 12,6 km/h